sensor_id;sensor_type;location;lat;lon;timestamp;pressure;altitude;pressure_sealevel;temperature;humidity
66479;BME280;53294;47.912;13.526;2023-02-02T00:01:50;96367.19;;;2.14;77.26
66479;BME280;53294;47.912;13.526;2023-02-02T00:04:26;96360.31;;;2.13;77.21
66479;BME280;53294;47.912;13.526;2023-02-02T00:06:54;96344.97;;;2.15;77.04
66479;BME280;53294;47.912;13.526;2023-02-02T00:09:23;96352.34;;;2.13;77.24
66479;BME280;53294;47.912;13.526;2023-02-02T00:11:50;96354.06;;;2.19;76.98
66479;BME280;53294;47.912;13.526;2023-02-02T00:14:17;96327.84;;;2.06;77.68
66479;BME280;53294;47.912;13.526;2023-02-02T00:16:52;96358.00;;;2.05;77.83
66479;BME280;53294;47.912;13.526;2023-02-02T00:19:21;96319.78;;;2.01;77.97
66479;BME280;53294;47.912;13.526;2023-02-02T00:21:50;96340.56;;;1.80;79.59
66479;BME280;53294;47.912;13.526;2023-02-02T00:24:17;96358.09;;;1.81;79.76
66479;BME280;53294;47.912;13.526;2023-02-02T00:26:47;96342.53;;;1.85;79.55
66479;BME280;53294;47.912;13.526;2023-02-02T00:29:19;96337.50;;;1.71;80.83
66479;BME280;53294;47.912;13.526;2023-02-02T00:31:46;96328.75;;;1.71;80.60
66479;BME280;53294;47.912;13.526;2023-02-02T00:34:14;96319.22;;;1.70;80.92
66479;BME280;53294;47.912;13.526;2023-02-02T00:36:42;96351.00;;;1.70;81.26
66479;BME280;53294;47.912;13.526;2023-02-02T00:39:11;96334.63;;;1.73;81.00
66479;BME280;53294;47.912;13.526;2023-02-02T00:41:40;96319.84;;;1.77;80.73
66479;BME280;53294;47.912;13.526;2023-02-02T00:44:07;96337.28;;;1.73;81.07
66479;BME280;53294;47.912;13.526;2023-02-02T00:46:52;96322.41;;;1.72;80.69
66479;BME280;53294;47.912;13.526;2023-02-02T00:49:19;96322.75;;;1.75;80.68
66479;BME280;53294;47.912;13.526;2023-02-02T00:51:45;96326.78;;;1.78;80.57
66479;BME280;53294;47.912;13.526;2023-02-02T00:54:12;96347.03;;;1.84;80.36
66479;BME280;53294;47.912;13.526;2023-02-02T00:56:42;96330.66;;;1.87;80.09
66479;BME280;53294;47.912;13.526;2023-02-02T00:59:08;96323.09;;;1.79;80.55
66479;BME280;53294;47.912;13.526;2023-02-02T01:01:35;96356.47;;;1.80;80.72
66479;BME280;53294;47.912;13.526;2023-02-02T01:04:01;96336.91;;;1.81;80.81
66479;BME280;53294;47.912;13.526;2023-02-02T01:06:28;96354.97;;;1.84;80.43
66479;BME280;53294;47.912;13.526;2023-02-02T01:08:55;96332.94;;;1.95;78.38
66479;BME280;53294;47.912;13.526;2023-02-02T01:11:21;96340.09;;;1.95;79.31
66479;BME280;53294;47.912;13.526;2023-02-02T01:13:48;96347.22;;;1.94;79.27
66479;BME280;53294;47.912;13.526;2023-02-02T01:16:15;96330.41;;;2.01;78.83
66479;BME280;53294;47.912;13.526;2023-02-02T01:18:42;96354.25;;;2.01;79.04
66479;BME280;53294;47.912;13.526;2023-02-02T01:21:10;96333.13;;;2.06;78.62
66479;BME280;53294;47.912;13.526;2023-02-02T01:23:38;96340.38;;;2.10;78.60
66479;BME280;53294;47.912;13.526;2023-02-02T01:26:07;96356.59;;;2.14;78.17
66479;BME280;53294;47.912;13.526;2023-02-02T01:28:34;96322.97;;;2.14;77.34
66479;BME280;53294;47.912;13.526;2023-02-02T01:31:12;96330.09;;;2.14;77.37
66479;BME280;53294;47.912;13.526;2023-02-02T01:33:40;96332.50;;;2.15;77.00
66479;BME280;53294;47.912;13.526;2023-02-02T01:36:11;96340.22;;;2.17;76.70
66479;BME280;53294;47.912;13.526;2023-02-02T01:38:38;96332.03;;;2.19;76.75
66479;BME280;53294;47.912;13.526;2023-02-02T01:41:05;96325.47;;;2.21;76.93
66479;BME280;53294;47.912;13.526;2023-02-02T01:46:14;96324.97;;;2.24;76.64
66479;BME280;53294;47.912;13.526;2023-02-02T01:48:45;96337.19;;;2.25;76.25
66479;BME280;53294;47.912;13.526;2023-02-02T01:51:16;96338.31;;;2.29;76.07
66479;BME280;53294;47.912;13.526;2023-02-02T01:53:45;96327.63;;;2.24;76.94
66479;BME280;53294;47.912;13.526;2023-02-02T01:56:25;96319.34;;;2.21;77.26
66479;BME280;53294;47.912;13.526;2023-02-02T01:58:54;96315.34;;;2.18;77.52
66479;BME280;53294;47.912;13.526;2023-02-02T02:01:21;96320.63;;;2.18;77.62
66479;BME280;53294;47.912;13.526;2023-02-02T02:03:48;96318.47;;;2.15;77.42
66479;BME280;53294;47.912;13.526;2023-02-02T02:06:16;96306.81;;;2.16;76.98
66479;BME280;53294;47.912;13.526;2023-02-02T02:09:00;96305.19;;;2.15;77.76
66479;BME280;53294;47.912;13.526;2023-02-02T02:11:30;96318.78;;;2.19;76.95
66479;BME280;53294;47.912;13.526;2023-02-02T02:13:59;96295.16;;;2.17;76.69
66479;BME280;53294;47.912;13.526;2023-02-02T02:28:34;96283.44;;;2.13;77.97
66479;BME280;53294;47.912;13.526;2023-02-02T02:39:08;96273.66;;;2.30;75.88
66479;BME280;53294;47.912;13.526;2023-02-02T02:41:45;96265.13;;;2.28;75.90
66479;BME280;53294;47.912;13.526;2023-02-02T02:44:16;96255.59;;;2.27;76.39
66479;BME280;53294;47.912;13.526;2023-02-02T02:46:46;96262.22;;;2.30;76.66
66479;BME280;53294;47.912;13.526;2023-02-02T02:49:13;96284.34;;;2.36;76.89
66479;BME280;53294;47.912;13.526;2023-02-02T02:54:34;96261.06;;;2.21;77.61
66479;BME280;53294;47.912;13.526;2023-02-02T03:11:03;96250.91;;;2.01;80.38
66479;BME280;53294;47.912;13.526;2023-02-02T03:13:32;96249.94;;;2.07;79.92
66479;BME280;53294;47.912;13.526;2023-02-02T03:15:59;96254.66;;;2.05;79.49
66479;BME280;53294;47.912;13.526;2023-02-02T03:18:28;96261.09;;;2.09;79.13
66479;BME280;53294;47.912;13.526;2023-02-02T03:20:55;96219.91;;;2.18;77.41
66479;BME280;53294;47.912;13.526;2023-02-02T03:23:22;96244.91;;;2.22;77.18
66479;BME280;53294;47.912;13.526;2023-02-02T03:25:49;96238.63;;;2.28;77.34
66479;BME280;53294;47.912;13.526;2023-02-02T03:28:17;96225.88;;;2.25;76.99
66479;BME280;53294;47.912;13.526;2023-02-02T03:30:45;96229.63;;;2.29;77.01
66479;BME280;53294;47.912;13.526;2023-02-02T03:33:13;96244.03;;;2.33;77.15
66479;BME280;53294;47.912;13.526;2023-02-02T03:35:41;96248.59;;;2.38;76.86
66479;BME280;53294;47.912;13.526;2023-02-02T03:38:07;96253.66;;;2.40;76.77
66479;BME280;53294;47.912;13.526;2023-02-02T03:40:34;96224.41;;;2.34;76.92
66479;BME280;53294;47.912;13.526;2023-02-02T03:43:01;96254.44;;;2.40;76.61
66479;BME280;53294;47.912;13.526;2023-02-02T03:45:28;96250.44;;;2.38;76.49
66479;BME280;53294;47.912;13.526;2023-02-02T03:47:55;96249.16;;;2.40;76.22
66479;BME280;53294;47.912;13.526;2023-02-02T03:50:22;96246.25;;;2.42;75.87
66479;BME280;53294;47.912;13.526;2023-02-02T03:52:50;96247.88;;;2.43;76.27
66479;BME280;53294;47.912;13.526;2023-02-02T03:55:17;96267.66;;;2.52;75.52
66479;BME280;53294;47.912;13.526;2023-02-02T03:57:43;96249.63;;;2.54;75.78
66479;BME280;53294;47.912;13.526;2023-02-02T04:00:10;96230.03;;;2.55;75.55
66479;BME280;53294;47.912;13.526;2023-02-02T04:02:37;96248.84;;;2.54;75.59
66479;BME280;53294;47.912;13.526;2023-02-02T04:05:04;96235.81;;;2.52;75.96
66479;BME280;53294;47.912;13.526;2023-02-02T04:07:31;96256.56;;;2.55;75.50
66479;BME280;53294;47.912;13.526;2023-02-02T04:09:58;96258.00;;;2.63;75.57
66479;BME280;53294;47.912;13.526;2023-02-02T04:12:24;96242.88;;;2.63;75.44
66479;BME280;53294;47.912;13.526;2023-02-02T04:14:51;96256.56;;;2.55;75.85
66479;BME280;53294;47.912;13.526;2023-02-02T04:17:17;96259.09;;;2.50;76.91
66479;BME280;53294;47.912;13.526;2023-02-02T04:19:44;96268.59;;;2.46;77.88
66479;BME280;53294;47.912;13.526;2023-02-02T04:22:11;96262.16;;;2.42;78.18
66479;BME280;53294;47.912;13.526;2023-02-02T04:24:37;96240.00;;;2.31;78.57
66479;BME280;53294;47.912;13.526;2023-02-02T04:27:04;96285.47;;;2.40;79.20
66479;BME280;53294;47.912;13.526;2023-02-02T04:29:30;96257.09;;;2.40;79.52
66479;BME280;53294;47.912;13.526;2023-02-02T04:31:57;96285.38;;;2.34;79.53
66479;BME280;53294;47.912;13.526;2023-02-02T04:34:24;96285.00;;;2.43;79.07
66479;BME280;53294;47.912;13.526;2023-02-02T04:36:50;96273.66;;;2.30;79.37
66479;BME280;53294;47.912;13.526;2023-02-02T04:39:17;96275.97;;;2.44;79.70
66479;BME280;53294;47.912;13.526;2023-02-02T04:41:43;96271.31;;;2.34;79.45
66479;BME280;53294;47.912;13.526;2023-02-02T04:44:13;96270.91;;;2.42;79.67
66479;BME280;53294;47.912;13.526;2023-02-02T04:46:42;96286.50;;;2.39;79.24
66479;BME280;53294;47.912;13.526;2023-02-02T04:49:09;96292.06;;;2.37;79.74
66479;BME280;53294;47.912;13.526;2023-02-02T04:51:38;96301.38;;;2.40;79.84
66479;BME280;53294;47.912;13.526;2023-02-02T04:54:05;96305.63;;;2.41;79.83
66479;BME280;53294;47.912;13.526;2023-02-02T04:56:33;96301.75;;;2.31;80.06
66479;BME280;53294;47.912;13.526;2023-02-02T04:59:00;96292.06;;;2.37;79.88
66479;BME280;53294;47.912;13.526;2023-02-02T05:01:27;96316.72;;;2.38;79.60
66479;BME280;53294;47.912;13.526;2023-02-02T05:03:54;96312.63;;;2.47;79.74
66479;BME280;53294;47.912;13.526;2023-02-02T05:06:21;96304.28;;;2.55;79.18
66479;BME280;53294;47.912;13.526;2023-02-02T05:08:48;96301.06;;;2.53;78.93
66479;BME280;53294;47.912;13.526;2023-02-02T05:11:17;96306.84;;;2.50;78.80
66479;BME280;53294;47.912;13.526;2023-02-02T05:13:50;96319.72;;;2.58;79.00
66479;BME280;53294;47.912;13.526;2023-02-02T05:16:18;96323.41;;;2.57;78.53
66479;BME280;53294;47.912;13.526;2023-02-02T05:18:50;96318.41;;;2.61;78.35
66479;BME280;53294;47.912;13.526;2023-02-02T05:21:17;96333.06;;;2.63;78.83
66479;BME280;53294;47.912;13.526;2023-02-02T05:23:44;96356.94;;;2.63;78.39
66479;BME280;53294;47.912;13.526;2023-02-02T05:26:14;96370.84;;;2.71;78.28
66479;BME280;53294;47.912;13.526;2023-02-02T05:28:42;96370.75;;;2.65;78.80
66479;BME280;53294;47.912;13.526;2023-02-02T05:31:09;96363.59;;;2.66;78.86
66479;BME280;53294;47.912;13.526;2023-02-02T05:33:35;96368.94;;;2.83;78.29
66479;BME280;53294;47.912;13.526;2023-02-02T05:36:03;96384.19;;;2.76;78.77
66479;BME280;53294;47.912;13.526;2023-02-02T05:38:30;96375.34;;;2.70;78.50
66479;BME280;53294;47.912;13.526;2023-02-02T05:40:56;96376.78;;;2.78;78.51
66479;BME280;53294;47.912;13.526;2023-02-02T05:43:27;96396.25;;;2.83;78.57
66479;BME280;53294;47.912;13.526;2023-02-02T05:45:54;96387.75;;;2.81;78.53
66479;BME280;53294;47.912;13.526;2023-02-02T05:48:21;96400.91;;;2.93;78.09
66479;BME280;53294;47.912;13.526;2023-02-02T05:50:59;96390.94;;;3.00;77.47
66479;BME280;53294;47.912;13.526;2023-02-02T05:53:29;96399.41;;;2.97;77.43
66479;BME280;53294;47.912;13.526;2023-02-02T05:55:56;96399.56;;;2.91;77.82
66479;BME280;53294;47.912;13.526;2023-02-02T05:58:23;96403.31;;;2.78;77.84
66479;BME280;53294;47.912;13.526;2023-02-02T06:00:49;96417.72;;;2.82;77.34
66479;BME280;53294;47.912;13.526;2023-02-02T06:03:16;96420.59;;;2.63;77.74
66479;BME280;53294;47.912;13.526;2023-02-02T06:05:43;96412.91;;;2.79;77.02
66479;BME280;53294;47.912;13.526;2023-02-02T06:08:09;96423.25;;;2.63;77.37
66479;BME280;53294;47.912;13.526;2023-02-02T06:10:40;96410.94;;;2.57;77.56
66479;BME280;53294;47.912;13.526;2023-02-02T06:13:07;96436.88;;;2.55;77.14
66479;BME280;53294;47.912;13.526;2023-02-02T06:15:34;96434.59;;;2.47;77.19
66479;BME280;53294;47.912;13.526;2023-02-02T06:18:01;96441.31;;;2.66;76.56
66479;BME280;53294;47.912;13.526;2023-02-02T06:20:28;96437.41;;;2.69;76.48
66479;BME280;53294;47.912;13.526;2023-02-02T06:22:55;96433.38;;;2.66;76.66
66479;BME280;53294;47.912;13.526;2023-02-02T06:25:21;96445.75;;;2.78;75.90
66479;BME280;53294;47.912;13.526;2023-02-02T06:27:49;96447.03;;;2.58;76.63
66479;BME280;53294;47.912;13.526;2023-02-02T06:30:15;96443.69;;;2.80;75.38
66479;BME280;53294;47.912;13.526;2023-02-02T06:32:42;96447.09;;;2.92;75.11
66479;BME280;53294;47.912;13.526;2023-02-02T06:35:09;96449.34;;;3.00;74.87
66479;BME280;53294;47.912;13.526;2023-02-02T06:37:35;96454.50;;;3.07;74.48
66479;BME280;53294;47.912;13.526;2023-02-02T06:40:05;96453.84;;;3.17;73.84
66479;BME280;53294;47.912;13.526;2023-02-02T06:42:32;96459.50;;;3.20;73.64
66479;BME280;53294;47.912;13.526;2023-02-02T06:44:59;96465.75;;;2.97;73.64
66479;BME280;53294;47.912;13.526;2023-02-02T06:47:26;96468.88;;;2.94;73.50
66479;BME280;53294;47.912;13.526;2023-02-02T06:49:52;96472.09;;;2.39;75.55
66479;BME280;53294;47.912;13.526;2023-02-02T06:52:19;96469.25;;;2.69;74.74
66479;BME280;53294;47.912;13.526;2023-02-02T06:54:46;96482.53;;;2.86;74.52
66479;BME280;53294;47.912;13.526;2023-02-02T06:57:13;96492.03;;;2.99;73.90
66479;BME280;53294;47.912;13.526;2023-02-02T06:59:39;96498.34;;;2.81;74.08
66479;BME280;53294;47.912;13.526;2023-02-02T07:02:10;96496.66;;;2.75;74.75
66479;BME280;53294;47.912;13.526;2023-02-02T07:04:38;96506.44;;;2.86;74.25
66479;BME280;53294;47.912;13.526;2023-02-02T07:07:04;96508.69;;;2.94;73.85
66479;BME280;53294;47.912;13.526;2023-02-02T07:09:32;96521.75;;;3.13;73.26
66479;BME280;53294;47.912;13.526;2023-02-02T07:11:59;96518.63;;;3.33;72.80
66479;BME280;53294;47.912;13.526;2023-02-02T07:14:26;96527.88;;;3.30;72.75
66479;BME280;53294;47.912;13.526;2023-02-02T07:16:52;96523.84;;;3.45;72.00
66479;BME280;53294;47.912;13.526;2023-02-02T07:19:19;96529.66;;;3.41;72.42
66479;BME280;53294;47.912;13.526;2023-02-02T07:21:46;96525.41;;;3.40;72.19
66479;BME280;53294;47.912;13.526;2023-02-02T07:24:12;96538.69;;;3.40;72.82
66479;BME280;53294;47.912;13.526;2023-02-02T07:26:39;96541.72;;;3.32;72.81
66479;BME280;53294;47.912;13.526;2023-02-02T07:29:06;96539.66;;;3.05;73.37
66479;BME280;53294;47.912;13.526;2023-02-02T07:31:32;96536.13;;;2.71;74.18
66479;BME280;53294;47.912;13.526;2023-02-02T07:34:02;96539.09;;;3.03;73.90
66479;BME280;53294;47.912;13.526;2023-02-02T07:36:29;96536.97;;;2.88;73.73
66479;BME280;53294;47.912;13.526;2023-02-02T07:38:56;96541.47;;;2.88;73.71
66479;BME280;53294;47.912;13.526;2023-02-02T07:41:23;96546.19;;;3.15;72.90
66479;BME280;53294;47.912;13.526;2023-02-02T07:43:50;96549.75;;;3.20;72.67
66479;BME280;53294;47.912;13.526;2023-02-02T07:46:18;96553.78;;;3.23;72.98
66479;BME280;53294;47.912;13.526;2023-02-02T07:48:45;96544.94;;;3.17;72.85
66479;BME280;53294;47.912;13.526;2023-02-02T07:51:14;96553.63;;;3.30;72.78
66479;BME280;53294;47.912;13.526;2023-02-02T07:53:46;96559.06;;;3.23;72.79
66479;BME280;53294;47.912;13.526;2023-02-02T07:56:22;96559.28;;;2.76;74.16
66479;BME280;53294;47.912;13.526;2023-02-02T07:58:51;96563.75;;;2.34;75.34
66479;BME280;53294;47.912;13.526;2023-02-02T08:01:17;96561.34;;;2.33;75.35
66479;BME280;53294;47.912;13.526;2023-02-02T08:03:46;96551.97;;;2.54;74.59
66479;BME280;53294;47.912;13.526;2023-02-02T08:06:20;96557.66;;;2.75;73.71
66479;BME280;53294;47.912;13.526;2023-02-02T08:08:47;96556.25;;;2.84;73.13
66479;BME280;53294;47.912;13.526;2023-02-02T08:11:17;96549.13;;;3.01;72.51
66479;BME280;53294;47.912;13.526;2023-02-02T08:13:47;96547.72;;;3.11;72.40
66479;BME280;53294;47.912;13.526;2023-02-02T08:16:15;96557.66;;;2.75;73.56
66479;BME280;53294;47.912;13.526;2023-02-02T08:18:42;96557.03;;;2.56;74.20
66479;BME280;53294;47.912;13.526;2023-02-02T08:21:09;96554.38;;;2.56;74.17
66479;BME280;53294;47.912;13.526;2023-02-02T08:23:38;96554.38;;;2.67;73.74
66479;BME280;53294;47.912;13.526;2023-02-02T08:26:13;96561.50;;;2.67;73.51
66479;BME280;53294;47.912;13.526;2023-02-02T08:28:41;96566.63;;;2.45;74.55
66479;BME280;53294;47.912;13.526;2023-02-02T08:31:29;96556.81;;;2.57;73.99
66479;BME280;53294;47.912;13.526;2023-02-02T08:33:55;96565.91;;;2.90;72.61
66479;BME280;53294;47.912;13.526;2023-02-02T08:36:25;96561.03;;;3.28;71.73
66479;BME280;53294;47.912;13.526;2023-02-02T08:38:52;96562.81;;;3.39;71.55
66479;BME280;53294;47.912;13.526;2023-02-02T08:41:21;96561.03;;;3.45;71.06
66479;BME280;53294;47.912;13.526;2023-02-02T08:43:49;96564.53;;;3.62;70.75
66479;BME280;53294;47.912;13.526;2023-02-02T08:46:17;96567.19;;;3.62;70.75
66479;BME280;53294;47.912;13.526;2023-02-02T08:48:46;96568.78;;;3.63;71.15
66479;BME280;53294;47.912;13.526;2023-02-02T08:51:14;96562.66;;;3.46;72.19
66479;BME280;53294;47.912;13.526;2023-02-02T08:53:42;96564.44;;;3.57;71.70
66479;BME280;53294;47.912;13.526;2023-02-02T08:56:11;96564.91;;;3.54;71.07
66479;BME280;53294;47.912;13.526;2023-02-02T08:58:38;96573.78;;;3.76;70.73
66479;BME280;53294;47.912;13.526;2023-02-02T09:01:19;96569.44;;;3.53;71.92
66479;BME280;53294;47.912;13.526;2023-02-02T09:03:47;96561.06;;;3.78;70.98
66479;BME280;53294;47.912;13.526;2023-02-02T09:06:16;96567.41;;;3.77;71.50
66479;BME280;53294;47.912;13.526;2023-02-02T09:08:44;96571.50;;;3.85;71.32
66479;BME280;53294;47.912;13.526;2023-02-02T09:11:17;96570.94;;;4.00;71.22
66479;BME280;53294;47.912;13.526;2023-02-02T09:13:45;96569.09;;;4.01;70.97
66479;BME280;53294;47.912;13.526;2023-02-02T09:16:14;96570.41;;;3.81;70.74
66479;BME280;53294;47.912;13.526;2023-02-02T09:18:42;96573.44;;;4.07;70.67
66479;BME280;53294;47.912;13.526;2023-02-02T09:21:10;96585.03;;;4.18;70.08
66479;BME280;53294;47.912;13.526;2023-02-02T09:23:39;96582.78;;;4.09;70.25
66479;BME280;53294;47.912;13.526;2023-02-02T09:28:42;96590.75;;;4.09;70.93
66479;BME280;53294;47.912;13.526;2023-02-02T09:31:10;96585.38;;;4.04;70.96
66479;BME280;53294;47.912;13.526;2023-02-02T09:33:37;96600.19;;;4.00;71.05
66479;BME280;53294;47.912;13.526;2023-02-02T09:36:14;96587.38;;;3.80;71.34
66479;BME280;53294;47.912;13.526;2023-02-02T09:38:43;96598.91;;;3.86;71.60
66479;BME280;53294;47.912;13.526;2023-02-02T09:46:54;96592.16;;;3.95;71.62
66479;BME280;53294;47.912;13.526;2023-02-02T09:50:15;96597.38;;;3.90;71.60
66479;BME280;53294;47.912;13.526;2023-02-02T09:52:33;96605.19;;;3.80;71.29
66479;BME280;53294;47.912;13.526;2023-02-02T09:55:15;96612.81;;;3.93;71.40
66479;BME280;53294;47.912;13.526;2023-02-02T09:57:48;96602.78;;;4.12;70.80
66479;BME280;53294;47.912;13.526;2023-02-02T10:00:38;96607.00;;;4.30;70.76
66479;BME280;53294;47.912;13.526;2023-02-02T10:06:28;96600.41;;;4.32;70.71
66479;BME280;53294;47.912;13.526;2023-02-02T10:09:12;96603.53;;;4.29;70.02
66479;BME280;53294;47.912;13.526;2023-02-02T10:12:04;96606.03;;;4.36;70.65
66479;BME280;53294;47.912;13.526;2023-02-02T10:14:37;96602.75;;;4.29;70.24
66479;BME280;53294;47.912;13.526;2023-02-02T10:19:57;96601.19;;;4.33;70.31
66479;BME280;53294;47.912;13.526;2023-02-02T10:22:28;96602.47;;;4.47;69.71
66479;BME280;53294;47.912;13.526;2023-02-02T10:24:58;96604.66;;;4.51;70.11
66479;BME280;53294;47.912;13.526;2023-02-02T10:27:37;96604.13;;;4.54;70.65
66479;BME280;53294;47.912;13.526;2023-02-02T10:30:28;96603.97;;;4.60;70.68
66479;BME280;53294;47.912;13.526;2023-02-02T10:41:43;96598.44;;;4.67;70.42
66479;BME280;53294;47.912;13.526;2023-02-02T10:44:24;96595.25;;;4.65;70.47
66479;BME280;53294;47.912;13.526;2023-02-02T10:46:56;96591.84;;;4.70;69.84
66479;BME280;53294;47.912;13.526;2023-02-02T10:49:30;96585.84;;;4.79;69.87
66479;BME280;53294;47.912;13.526;2023-02-02T10:54:39;96585.28;;;4.77;69.93
66479;BME280;53294;47.912;13.526;2023-02-02T11:00:21;96578.69;;;4.63;69.79
66479;BME280;53294;47.912;13.526;2023-02-02T11:02:50;96582.00;;;4.70;69.46
66479;BME280;53294;47.912;13.526;2023-02-02T11:05:23;96575.81;;;4.87;69.22
66479;BME280;53294;47.912;13.526;2023-02-02T11:08:11;96575.44;;;4.56;70.13
66479;BME280;53294;47.912;13.526;2023-02-02T11:10:38;96580.63;;;4.06;71.08
66479;BME280;53294;47.912;13.526;2023-02-02T11:13:06;96581.56;;;4.17;71.10
66479;BME280;53294;47.912;13.526;2023-02-02T11:15:36;96574.81;;;4.48;70.04
66479;BME280;53294;47.912;13.526;2023-02-02T11:18:24;96571.94;;;4.33;70.14
66479;BME280;53294;47.912;13.526;2023-02-02T11:20:52;96570.41;;;3.98;70.99
66479;BME280;53294;47.912;13.526;2023-02-02T11:23:20;96577.38;;;4.21;70.52
66479;BME280;53294;47.912;13.526;2023-02-02T11:25:57;96573.34;;;4.19;70.56
66479;BME280;53294;47.912;13.526;2023-02-02T11:28:25;96575.00;;;3.69;71.35
66479;BME280;53294;47.912;13.526;2023-02-02T11:30:56;96572.31;;;4.20;70.31
66479;BME280;53294;47.912;13.526;2023-02-02T11:33:28;96573.56;;;4.34;70.25
66479;BME280;53294;47.912;13.526;2023-02-02T11:36:01;96567.56;;;4.44;69.97
66479;BME280;53294;47.912;13.526;2023-02-02T11:38:29;96561.63;;;4.37;69.97
66479;BME280;53294;47.912;13.526;2023-02-02T11:40:59;96561.75;;;4.47;70.25
66479;BME280;53294;47.912;13.526;2023-02-02T11:43:34;96567.88;;;4.47;69.99
66479;BME280;53294;47.912;13.526;2023-02-02T11:48:57;96562.00;;;4.45;69.80
66479;BME280;53294;47.912;13.526;2023-02-02T11:51:27;96555.97;;;4.33;69.91
66479;BME280;53294;47.912;13.526;2023-02-02T11:56:40;96558.34;;;4.52;69.91
66479;BME280;53294;47.912;13.526;2023-02-02T11:59:26;96558.66;;;4.55;70.17
66479;BME280;53294;47.912;13.526;2023-02-02T12:04:51;96555.38;;;4.70;69.82
66479;BME280;53294;47.912;13.526;2023-02-02T12:07:31;96545.09;;;4.57;69.10
66479;BME280;53294;47.912;13.526;2023-02-02T12:10:12;96549.91;;;4.16;70.74
66479;BME280;53294;47.912;13.526;2023-02-02T12:12:44;96544.84;;;4.36;69.54
66479;BME280;53294;47.912;13.526;2023-02-02T12:17:46;96543.72;;;3.93;70.58
66479;BME280;53294;47.912;13.526;2023-02-02T12:42:33;96547.25;;;4.60;69.31
66479;BME280;53294;47.912;13.526;2023-02-02T12:54:15;96547.41;;;4.48;69.44
66479;BME280;53294;47.912;13.526;2023-02-02T12:57:27;96546.53;;;4.42;69.49
66479;BME280;53294;47.912;13.526;2023-02-02T13:02:59;96548.91;;;4.22;68.85
66479;BME280;53294;47.912;13.526;2023-02-02T13:11:11;96553.25;;;3.89;70.46
66479;BME280;53294;47.912;13.526;2023-02-02T13:14:15;96552.03;;;3.63;70.82
66479;BME280;53294;47.912;13.526;2023-02-02T13:16:46;96552.03;;;3.63;70.71
66479;BME280;53294;47.912;13.526;2023-02-02T13:19:27;96560.56;;;3.99;69.87
66479;BME280;53294;47.912;13.526;2023-02-02T13:21:57;96561.28;;;3.94;69.96
66479;BME280;53294;47.912;13.526;2023-02-02T13:24:29;96559.84;;;3.86;70.00
66479;BME280;53294;47.912;13.526;2023-02-02T13:27:01;96566.34;;;4.12;69.30
66479;BME280;53294;47.912;13.526;2023-02-02T13:29:36;96567.91;;;3.74;70.66
66479;BME280;53294;47.912;13.526;2023-02-02T13:34:48;96570.28;;;4.10;69.80
66479;BME280;53294;47.912;13.526;2023-02-02T13:48:32;96574.53;;;4.28;68.83
66479;BME280;53294;47.912;13.526;2023-02-02T14:02:49;96570.53;;;4.08;69.23
66479;BME280;53294;47.912;13.526;2023-02-02T14:08:01;96571.09;;;3.42;71.78
66479;BME280;53294;47.912;13.526;2023-02-02T14:10:38;96566.84;;;3.75;70.26
66479;BME280;53294;47.912;13.526;2023-02-02T14:13:06;96569.50;;;3.75;70.30
66479;BME280;53294;47.912;13.526;2023-02-02T14:15:54;96570.56;;;3.57;70.83
66479;BME280;53294;47.912;13.526;2023-02-02T14:26:47;96586.72;;;3.39;71.65
66479;BME280;53294;47.912;13.526;2023-02-02T14:31:59;96581.28;;;3.17;72.21
66479;BME280;53294;47.912;13.526;2023-02-02T14:34:28;96594.75;;;2.98;73.25
66479;BME280;53294;47.912;13.526;2023-02-02T14:39:41;96583.72;;;2.78;74.07
66479;BME280;53294;47.912;13.526;2023-02-02T14:45:29;96585.44;;;2.31;78.03
66479;BME280;53294;47.912;13.526;2023-02-02T14:48:01;96594.63;;;2.41;77.38
66479;BME280;53294;47.912;13.526;2023-02-02T14:58:43;96585.19;;;2.45;78.13
66479;BME280;53294;47.912;13.526;2023-02-02T15:17:04;96602.53;;;2.24;81.15
66479;BME280;53294;47.912;13.526;2023-02-02T15:19:37;96608.50;;;2.19;81.19
66479;BME280;53294;47.912;13.526;2023-02-02T15:22:31;96605.84;;;2.07;81.77
66479;BME280;53294;47.912;13.526;2023-02-02T15:25:04;96601.34;;;2.08;81.71
66479;BME280;53294;47.912;13.526;2023-02-02T15:27:33;96601.13;;;2.21;82.00
66479;BME280;53294;47.912;13.526;2023-02-02T15:30:10;96590.19;;;2.18;82.19
66479;BME280;53294;47.912;13.526;2023-02-02T15:32:41;96607.69;;;2.19;82.24
66479;BME280;53294;47.912;13.526;2023-02-02T15:35:17;96611.63;;;2.16;82.25
66479;BME280;53294;47.912;13.526;2023-02-02T15:37:50;96618.19;;;2.13;82.44
66479;BME280;53294;47.912;13.526;2023-02-02T15:40:23;96612.66;;;2.15;82.50
66479;BME280;53294;47.912;13.526;2023-02-02T15:42:55;96611.03;;;2.14;82.26
66479;BME280;53294;47.912;13.526;2023-02-02T15:47:56;96620.03;;;2.13;82.88
66479;BME280;53294;47.912;13.526;2023-02-02T15:50:23;96623.50;;;2.13;82.85
66479;BME280;53294;47.912;13.526;2023-02-02T15:52:51;96620.72;;;2.20;82.79
66479;BME280;53294;47.912;13.526;2023-02-02T15:55:33;96624.66;;;2.18;82.59
66479;BME280;53294;47.912;13.526;2023-02-02T15:58:02;96637.44;;;2.21;82.38
66479;BME280;53294;47.912;13.526;2023-02-02T16:00:34;96654.03;;;2.16;82.65
66479;BME280;53294;47.912;13.526;2023-02-02T16:08:05;96664.50;;;2.11;83.09
66479;BME280;53294;47.912;13.526;2023-02-02T16:10:34;96650.91;;;2.07;82.93
66479;BME280;53294;47.912;13.526;2023-02-02T16:13:01;96671.44;;;2.12;83.22
66479;BME280;53294;47.912;13.526;2023-02-02T16:15:29;96677.41;;;2.07;83.01
66479;BME280;53294;47.912;13.526;2023-02-02T16:18:05;96674.63;;;2.14;82.85
66479;BME280;53294;47.912;13.526;2023-02-02T16:20:35;96679.94;;;2.14;83.05
66479;BME280;53294;47.912;13.526;2023-02-02T16:23:05;96684.78;;;2.17;82.74
66479;BME280;53294;47.912;13.526;2023-02-02T16:25:43;96695.75;;;2.21;82.77
66479;BME280;53294;47.912;13.526;2023-02-02T16:28:17;96697.72;;;2.25;82.24
66479;BME280;53294;47.912;13.526;2023-02-02T16:30:45;96699.09;;;2.16;82.36
66479;BME280;53294;47.912;13.526;2023-02-02T16:35:54;96721.91;;;2.17;82.70